createdAt,value
2023-03-17T00:00:04.212Z,6.18
2023-03-17T00:01:08.219Z,6.38
2023-03-17T00:02:10.239Z,9.43
2023-03-17T00:03:20.297Z,7.95
2023-03-17T00:04:24.012Z,6.63
2023-03-17T00:05:30.625Z,8.30
2023-03-17T00:06:33.848Z,7.15
2023-03-17T00:07:36.519Z,5.55
2023-03-17T00:08:38.065Z,7.82
2023-03-17T00:09:40.786Z,7.38
2023-03-17T00:10:42.785Z,6.97
2023-03-17T00:11:47.036Z,6.85
2023-03-17T00:12:50.598Z,9.48
2023-03-17T00:13:53.416Z,6.05
2023-03-17T00:14:54.902Z,8.02
2023-03-17T00:16:02.543Z,4.65
2023-03-17T00:17:05.577Z,8.25
2023-03-17T00:18:14.819Z,6.22
2023-03-17T00:19:17.842Z,6.50
2023-03-17T00:20:26.457Z,7.07
2023-03-17T00:21:31.031Z,6.45
2023-03-17T00:22:33.547Z,6.82
2023-03-17T00:23:35.853Z,6.13
2023-03-17T00:24:38.624Z,6.65
2023-03-17T00:25:43.359Z,9.52
2023-03-17T00:26:46.175Z,8.88
2023-03-17T00:27:48.825Z,6.10
2023-03-17T00:28:52.930Z,6.35
2023-03-17T00:29:54.500Z,7.55
2023-03-17T00:31:00.891Z,6.88
2023-03-17T00:32:02.761Z,7.38
2023-03-17T00:33:07.547Z,7.13
2023-03-17T00:34:12.164Z,5.63
2023-03-17T00:35:21.808Z,5.63
2023-03-17T00:36:26.182Z,7.20
2023-03-17T00:37:29.336Z,8.30
2023-03-17T00:38:31.385Z,7.85
2023-03-17T00:39:33.944Z,9.18
2023-03-17T00:40:36.709Z,6.90
2023-03-17T00:41:39.340Z,6.13
2023-03-17T00:42:41.817Z,7.05
2023-03-17T00:43:44.291Z,8.80
2023-03-17T00:44:46.417Z,6.95
2023-03-17T00:45:49.434Z,4.95
2023-03-17T00:46:51.954Z,5.43
2023-03-17T00:47:56.009Z,5.80
2023-03-17T00:48:59.667Z,8.60
2023-03-17T00:50:02.526Z,4.60
2023-03-17T00:51:05.282Z,6.00
2023-03-17T00:52:08.269Z,5.95
2023-03-17T00:53:12.333Z,7.00
2023-03-17T00:54:15.469Z,6.45
2023-03-17T00:55:17.657Z,5.97
2023-03-17T00:56:22.001Z,9.32
2023-03-17T00:57:23.596Z,6.40
2023-03-17T00:58:28.759Z,6.75
2023-03-17T00:59:38.009Z,5.30
2023-03-17T01:00:40.626Z,5.28
2023-03-17T01:01:42.157Z,6.20
2023-03-17T01:02:45.629Z,5.05
2023-03-17T01:03:47.229Z,6.07
2023-03-17T01:04:59.750Z,5.60
2023-03-17T01:06:11.911Z,6.88
2023-03-17T01:07:14.166Z,6.60
2023-03-17T01:08:18.071Z,6.95
2023-03-17T01:09:23.197Z,7.10
2023-03-17T01:10:28.392Z,7.57
2023-03-17T01:11:30.090Z,7.40
2023-03-17T01:12:33.318Z,6.13
2023-03-17T01:13:35.164Z,5.82
2023-03-17T01:14:38.148Z,5.32
2023-03-17T01:15:43.925Z,8.15
2023-03-17T01:16:48.197Z,4.20
2023-03-17T01:17:50.508Z,5.80
2023-03-17T01:18:53.483Z,7.47
2023-03-17T01:19:57.801Z,5.43
2023-03-17T01:21:00.393Z,4.95
2023-03-17T01:22:01.934Z,7.05
2023-03-17T01:23:04.914Z,6.05
2023-03-17T01:24:08.230Z,6.20
2023-03-17T01:25:11.377Z,7.35
2023-03-17T01:26:12.893Z,6.22
2023-03-17T01:27:16.052Z,7.95
2023-03-17T01:28:18.632Z,5.25
2023-03-17T01:29:21.671Z,5.18
2023-03-17T01:30:27.560Z,7.05
2023-03-17T01:31:30.730Z,8.05
2023-03-17T01:32:32.802Z,6.22
2023-03-17T01:33:35.548Z,6.88
2023-03-17T01:34:37.087Z,5.85
2023-03-17T01:35:43.794Z,4.85
2023-03-17T01:36:45.502Z,5.82
2023-03-17T01:37:48.895Z,5.63
2023-03-17T01:38:51.169Z,4.63
2023-03-17T01:39:53.974Z,7.03
2023-03-17T01:40:55.586Z,3.45
2023-03-17T01:42:01.580Z,3.92
2023-03-17T01:43:18.397Z,5.13
2023-03-17T01:44:20.849Z,4.95
2023-03-17T01:45:59.862Z,4.60
2023-03-17T01:47:02.589Z,5.38
2023-03-17T01:48:04.384Z,4.82
2023-03-17T01:49:12.756Z,4.60
2023-03-17T01:50:14.592Z,4.63
2023-03-17T01:51:23.542Z,3.55
2023-03-17T01:52:26.319Z,5.55
2023-03-17T01:53:28.319Z,4.25
2023-03-17T01:54:38.557Z,5.45
2023-03-17T01:55:41.213Z,4.30
2023-03-17T01:56:46.411Z,4.90
2023-03-17T01:57:51.487Z,3.90
2023-03-17T01:58:56.142Z,4.95
2023-03-17T02:00:01.931Z,7.05
2023-03-17T02:01:04.864Z,5.40
2023-03-17T02:02:09.529Z,7.18
2023-03-17T02:03:12.490Z,5.80
2023-03-17T02:04:14.333Z,4.03
2023-03-17T02:05:19.862Z,5.35
2023-03-17T02:06:22.748Z,3.75
2023-03-17T02:07:26.562Z,4.05
2023-03-17T02:08:28.096Z,3.78
2023-03-17T02:09:31.536Z,5.22
2023-03-17T02:10:33.569Z,5.80
2023-03-17T02:11:36.067Z,4.97
2023-03-17T02:12:37.624Z,5.03
2023-03-17T02:13:41.852Z,6.50
2023-03-17T02:14:44.438Z,3.30
2023-03-17T02:15:49.954Z,6.57
2023-03-17T02:16:51.546Z,6.13
2023-03-17T02:17:54.377Z,4.32
2023-03-17T02:18:56.125Z,5.43
2023-03-17T02:20:14.226Z,4.20
2023-03-17T02:21:35.143Z,7.85
2023-03-17T02:22:38.440Z,5.53
2023-03-17T02:23:40.361Z,4.10
2023-03-17T02:24:45.902Z,5.43
2023-03-17T02:25:48.498Z,6.53
2023-03-17T02:26:53.948Z,3.85
2023-03-17T02:27:59.997Z,4.95
2023-03-17T02:29:03.613Z,5.95
2023-03-17T02:30:07.371Z,6.55
2023-03-17T02:31:09.887Z,6.72
2023-03-17T02:32:13.159Z,4.82
2023-03-17T02:33:14.681Z,5.38
2023-03-17T02:34:18.337Z,6.13
2023-03-17T02:35:20.532Z,5.03
2023-03-17T02:36:23.399Z,5.18
2023-03-17T02:37:27.223Z,4.63
2023-03-17T02:38:28.982Z,4.05
2023-03-17T02:39:31.868Z,4.75
2023-03-17T02:40:33.352Z,5.18
2023-03-17T02:41:36.363Z,5.10
2023-03-17T02:42:39.218Z,5.15
2023-03-17T02:43:42.850Z,7.45
2023-03-17T02:44:45.393Z,4.05
2023-03-17T02:45:46.957Z,5.15
2023-03-17T02:46:49.428Z,3.83
2023-03-17T02:47:51.765Z,3.90
2023-03-17T02:48:55.744Z,3.88
2023-03-17T02:49:57.462Z,6.05
2023-03-17T02:50:59.995Z,4.18
2023-03-17T02:52:01.626Z,5.25
2023-03-17T02:53:05.489Z,6.45
2023-03-17T02:54:07.091Z,5.38
2023-03-17T02:55:10.475Z,4.53
2023-03-17T02:56:12.068Z,4.45
2023-03-17T02:57:14.545Z,3.75
2023-03-17T02:58:16.041Z,5.18
2023-03-17T02:59:18.576Z,5.97
2023-03-17T03:00:21.573Z,4.65
2023-03-17T03:01:27.097Z,5.63
2023-03-17T03:02:28.713Z,6.30
2023-03-17T03:03:31.539Z,4.57
2023-03-17T03:04:33.107Z,4.57
2023-03-17T03:05:35.875Z,5.13
2023-03-17T03:06:39.990Z,5.80
2023-03-17T03:07:41.578Z,6.93
2023-03-17T03:08:46.075Z,6.45
2023-03-17T03:09:47.641Z,6.75
2023-03-17T03:10:50.139Z,5.25
2023-03-17T03:11:52.230Z,6.22
2023-03-17T03:12:54.755Z,5.05
2023-03-17T03:13:56.311Z,5.20
2023-03-17T03:14:58.855Z,4.82
2023-03-17T03:16:00.630Z,3.83
2023-03-17T03:17:04.452Z,3.60
2023-03-17T03:18:06.414Z,5.38
2023-03-17T03:19:09.127Z,3.40
2023-03-17T03:20:13.247Z,6.38
2023-03-17T03:21:15.985Z,5.70
2023-03-17T03:22:17.551Z,2.72
2023-03-17T03:23:20.037Z,4.55
2023-03-17T03:24:22.920Z,5.55
2023-03-17T03:25:25.417Z,5.38
2023-03-17T03:26:27.323Z,6.00
2023-03-17T03:27:30.122Z,4.78
2023-03-17T03:28:31.891Z,3.45
2023-03-17T03:29:34.714Z,4.78
2023-03-17T03:30:37.572Z,5.38
2023-03-17T03:31:40.056Z,5.97
2023-03-17T03:32:41.722Z,5.75
2023-03-17T03:33:45.549Z,7.32
2023-03-17T03:34:47.084Z,5.68
2023-03-17T03:35:49.565Z,5.72
2023-03-17T03:36:51.270Z,4.70
2023-03-17T03:37:53.854Z,3.88
2023-03-17T03:38:55.471Z,3.95
2023-03-17T03:39:59.310Z,4.07
2023-03-17T03:41:01.968Z,4.88
2023-03-17T03:42:04.091Z,6.70
2023-03-17T03:43:21.898Z,5.35
2023-03-17T03:44:24.548Z,5.70
2023-03-17T03:45:27.487Z,5.10
2023-03-17T03:46:29.077Z,3.42
2023-03-17T03:47:31.605Z,5.10
2023-03-17T03:48:33.595Z,4.68
2023-03-17T03:49:36.143Z,6.28
2023-03-17T03:50:37.775Z,4.47
2023-03-17T03:51:40.554Z,4.20
2023-03-17T03:52:42.202Z,6.88
2023-03-17T03:53:44.768Z,5.15
2023-03-17T03:54:46.803Z,5.00
2023-03-17T03:55:50.669Z,5.60
2023-03-17T03:56:52.608Z,4.05
2023-03-17T03:57:55.539Z,4.45
2023-03-17T03:58:57.160Z,3.55
2023-03-17T04:00:00.323Z,6.00
2023-03-17T04:01:04.245Z,3.30
2023-03-17T04:02:09.399Z,5.85
2023-03-17T04:03:11.398Z,7.97
2023-03-17T04:04:13.932Z,4.07
2023-03-17T04:05:18.474Z,9.80
2023-03-17T04:06:20.011Z,4.97
2023-03-17T04:07:23.030Z,5.93
2023-03-17T04:08:24.966Z,6.15
2023-03-17T04:09:27.503Z,8.65
2023-03-17T04:10:29.401Z,7.13
2023-03-17T04:11:33.803Z,6.78
2023-03-17T04:12:35.429Z,6.45
2023-03-17T04:13:38.395Z,5.88
2023-03-17T04:14:39.966Z,5.78
2023-03-17T04:15:42.516Z,9.70
2023-03-17T04:16:44.499Z,7.13
2023-03-17T04:17:47.513Z,6.05
2023-03-17T04:18:49.089Z,6.00
2023-03-17T04:19:52.338Z,6.20
2023-03-17T04:20:53.986Z,7.75
2023-03-17T04:21:56.541Z,6.65
2023-03-17T04:22:58.112Z,12.18
2023-03-17T04:24:00.921Z,7.05
2023-03-17T04:25:02.736Z,9.00
2023-03-17T04:26:05.875Z,15.75
2023-03-17T04:27:10.471Z,8.40
2023-03-17T04:28:12.428Z,12.38
2023-03-17T04:29:15.955Z,9.57
2023-03-17T04:30:18.092Z,8.85
2023-03-17T04:31:21.035Z,8.07
2023-03-17T04:32:22.637Z,6.72
2023-03-17T04:33:25.181Z,5.70
2023-03-17T04:34:27.369Z,7.18
2023-03-17T04:35:30.585Z,7.18
2023-03-17T04:36:32.801Z,7.18
2023-03-17T04:37:35.300Z,7.72
2023-03-17T04:38:36.854Z,8.02
2023-03-17T04:39:39.705Z,7.70
2023-03-17T04:40:41.741Z,5.10
2023-03-17T04:41:44.226Z,5.82
2023-03-17T04:42:47.101Z,5.03
2023-03-17T04:43:49.630Z,5.40
2023-03-17T04:44:51.167Z,7.28
2023-03-17T04:45:53.652Z,4.07
2023-03-17T04:46:55.782Z,7.15
2023-03-17T04:47:58.280Z,7.80
2023-03-17T04:48:59.847Z,4.50
2023-03-17T04:50:03.140Z,10.70
2023-03-17T04:51:05.182Z,4.32
2023-03-17T04:52:07.835Z,5.25
2023-03-17T04:53:09.342Z,6.38
2023-03-17T04:54:12.120Z,6.72
2023-03-17T04:55:14.195Z,5.20
2023-03-17T04:56:16.895Z,6.18
2023-03-17T04:57:18.444Z,7.55
2023-03-17T04:58:30.492Z,4.28
2023-03-17T04:59:32.561Z,4.18
2023-03-17T05:00:38.804Z,4.22
2023-03-17T05:01:40.352Z,4.97
2023-03-17T05:02:42.920Z,5.57
2023-03-17T05:03:45.356Z,6.20
2023-03-17T05:04:48.023Z,4.78
2023-03-17T05:05:50.649Z,6.72
2023-03-17T05:06:53.261Z,6.30
2023-03-17T05:07:54.764Z,4.80
2023-03-17T05:08:57.231Z,6.00
2023-03-17T05:09:58.772Z,4.93
2023-03-17T05:11:01.840Z,4.88
2023-03-17T05:12:03.566Z,7.07
2023-03-17T05:13:06.528Z,6.90
2023-03-17T05:14:09.422Z,7.90
2023-03-17T05:15:12.539Z,6.22
2023-03-17T05:16:14.112Z,5.25
2023-03-17T05:17:16.623Z,5.85
2023-03-17T05:18:19.459Z,6.05
2023-03-17T05:19:22.093Z,7.10
2023-03-17T05:20:23.979Z,8.82
2023-03-17T05:21:27.087Z,7.28
2023-03-17T05:22:28.639Z,6.80
2023-03-17T05:23:31.334Z,6.55
2023-03-17T05:24:33.469Z,8.60
2023-03-17T05:25:36.645Z,7.25
2023-03-17T05:26:38.242Z,6.40
2023-03-17T05:27:40.832Z,5.78
2023-03-17T05:28:42.383Z,11.88
2023-03-17T05:29:46.173Z,7.60
2023-03-17T05:30:48.547Z,13.32
2023-03-17T05:31:51.482Z,7.85
2023-03-17T05:32:53.233Z,8.52
2023-03-17T05:33:56.539Z,8.07
2023-03-17T05:34:58.140Z,8.00
2023-03-17T05:36:01.458Z,9.38
2023-03-17T05:37:03.374Z,10.48
2023-03-17T05:38:06.799Z,7.93
2023-03-17T05:39:09.343Z,8.45
2023-03-17T05:40:13.796Z,7.05
2023-03-17T05:41:16.569Z,7.63
2023-03-17T05:42:18.261Z,7.63
2023-03-17T05:43:22.769Z,9.65
2023-03-17T05:44:24.822Z,9.32
2023-03-17T05:45:29.320Z,9.07
2023-03-17T05:46:30.921Z,6.97
2023-03-17T05:47:33.631Z,10.60
2023-03-17T05:48:35.479Z,8.77
2023-03-17T05:49:38.428Z,10.50
2023-03-17T05:50:41.665Z,7.85
2023-03-17T05:51:44.225Z,9.50
2023-03-17T05:52:45.798Z,9.45
2023-03-17T05:53:48.617Z,10.00
2023-03-17T05:54:51.978Z,10.18
2023-03-17T05:55:54.403Z,6.28
2023-03-17T05:56:56.086Z,7.78
2023-03-17T05:57:58.932Z,7.97
2023-03-17T05:59:01.641Z,11.45
2023-03-17T06:00:05.818Z,7.85
2023-03-17T06:01:09.719Z,7.63
2023-03-17T06:02:12.182Z,8.30
2023-03-17T06:03:15.237Z,8.30
2023-03-17T06:04:17.114Z,8.65
2023-03-17T06:05:19.600Z,8.70
2023-03-17T06:06:21.354Z,8.57
2023-03-17T06:07:23.859Z,6.95
2023-03-17T06:08:25.420Z,10.45
2023-03-17T06:09:28.168Z,9.98
2023-03-17T06:10:30.363Z,9.88
2023-03-17T06:11:33.127Z,9.57
2023-03-17T06:12:34.908Z,7.68
2023-03-17T06:13:37.533Z,7.15
2023-03-17T06:14:39.318Z,6.78
2023-03-17T06:15:42.483Z,8.98
2023-03-17T06:16:46.115Z,10.45
2023-03-17T06:17:48.646Z,7.47
2023-03-17T06:18:50.557Z,10.32
2023-03-17T06:19:53.096Z,8.38
2023-03-17T06:20:55.703Z,10.63
2023-03-17T06:21:57.216Z,9.95
2023-03-17T06:23:04.883Z,8.57
2023-03-17T06:24:08.109Z,10.55
2023-03-17T06:25:11.884Z,10.38
2023-03-17T06:26:13.357Z,10.52
2023-03-17T06:27:16.025Z,9.32
2023-03-17T06:28:18.460Z,10.73
2023-03-17T06:29:21.606Z,9.75
2023-03-17T06:30:23.189Z,6.88
2023-03-17T06:31:26.484Z,7.18
2023-03-17T06:32:30.650Z,9.05
2023-03-17T06:33:33.100Z,7.43
2023-03-17T06:34:34.847Z,10.63
2023-03-17T06:35:37.324Z,8.52
2023-03-17T06:36:39.254Z,6.53
2023-03-17T06:37:41.830Z,8.07
2023-03-17T06:38:43.824Z,7.22
2023-03-17T06:39:48.100Z,7.22
2023-03-17T06:40:50.576Z,8.35
2023-03-17T06:41:52.346Z,8.93
2023-03-17T06:42:54.827Z,5.85
2023-03-17T06:43:56.564Z,10.73
2023-03-17T06:44:59.084Z,7.47
2023-03-17T06:46:01.415Z,9.20
2023-03-17T06:47:04.917Z,8.63
2023-03-17T06:48:09.214Z,9.93
2023-03-17T06:49:13.411Z,8.55
2023-03-17T06:50:16.178Z,5.88
2023-03-17T06:51:17.744Z,7.28
2023-03-17T06:52:20.304Z,7.05
2023-03-17T06:53:22.104Z,8.20
2023-03-17T06:54:25.531Z,6.53
2023-03-17T06:55:29.029Z,8.60
2023-03-17T06:56:30.900Z,9.50
2023-03-17T06:57:33.534Z,9.90
2023-03-17T06:58:35.189Z,7.85
2023-03-17T06:59:38.111Z,9.05
2023-03-17T07:00:40.137Z,10.13
2023-03-17T07:01:42.633Z,9.50
2023-03-17T07:02:44.516Z,6.90
2023-03-17T07:03:48.681Z,5.45
2023-03-17T07:04:50.713Z,6.28
2023-03-17T07:05:53.648Z,6.20
2023-03-17T07:06:56.289Z,5.07
2023-03-17T07:07:57.816Z,8.38
2023-03-17T07:09:02.167Z,6.90
2023-03-17T07:10:04.552Z,6.90
2023-03-17T07:11:07.124Z,5.30
2023-03-17T07:12:10.580Z,4.97
2023-03-17T07:13:13.584Z,4.13
2023-03-17T07:14:15.175Z,5.88
2023-03-17T07:15:18.884Z,5.60
2023-03-17T07:16:21.246Z,6.57
2023-03-17T07:17:23.960Z,7.47
2023-03-17T07:18:25.995Z,6.35
2023-03-17T07:19:30.080Z,6.43
2023-03-17T07:20:31.875Z,8.48
2023-03-17T07:21:34.393Z,7.35
2023-03-17T07:22:35.875Z,5.28
2023-03-17T07:23:38.520Z,4.03
2023-03-17T07:24:41.970Z,3.35
2023-03-17T07:25:44.574Z,4.47
2023-03-17T07:26:47.202Z,4.32
2023-03-17T07:27:49.864Z,5.40
2023-03-17T07:28:51.942Z,2.65
2023-03-17T07:29:54.790Z,2.58
2023-03-17T07:30:58.002Z,3.03
2023-03-17T07:32:00.530Z,5.60
2023-03-17T07:33:02.252Z,4.93
2023-03-17T07:34:06.576Z,3.78
2023-03-17T07:35:10.785Z,2.97
2023-03-17T07:36:12.830Z,2.58
2023-03-17T07:37:15.348Z,4.38
2023-03-17T07:38:19.131Z,3.30
2023-03-17T07:39:21.601Z,3.42
2023-03-17T07:40:24.138Z,3.22
2023-03-17T07:41:26.694Z,2.08
2023-03-17T07:42:28.969Z,5.40
2023-03-17T07:43:31.935Z,3.25
2023-03-17T07:44:33.529Z,2.63
2023-03-17T07:45:36.993Z,3.95
2023-03-17T07:46:39.846Z,2.70
2023-03-17T07:47:41.607Z,3.08
2023-03-17T07:48:44.563Z,3.28
2023-03-17T07:49:46.916Z,3.00
2023-03-17T07:50:50.839Z,2.67
2023-03-17T07:51:52.374Z,4.93
2023-03-17T07:52:55.301Z,3.47
2023-03-17T07:54:03.994Z,3.13
2023-03-17T07:55:08.465Z,3.03
2023-03-17T07:56:11.217Z,2.03
2023-03-17T07:57:17.043Z,2.15
2023-03-17T07:58:18.730Z,1.90
2023-03-17T07:59:21.304Z,2.08
2023-03-17T08:00:23.616Z,1.90
2023-03-17T08:01:26.464Z,3.20
2023-03-17T08:02:28.127Z,2.40
2023-03-17T08:03:31.648Z,2.65
2023-03-17T08:04:35.306Z,1.50
2023-03-17T08:05:38.078Z,2.22
2023-03-17T08:06:43.099Z,3.80
2023-03-17T08:07:44.653Z,4.93
2023-03-17T08:08:47.319Z,3.33
2023-03-17T08:09:50.048Z,3.10
2023-03-17T08:10:52.090Z,3.20
2023-03-17T08:11:54.613Z,2.42
2023-03-17T08:12:56.464Z,3.80
2023-03-17T08:13:59.927Z,13.68
2023-03-17T08:15:01.547Z,2.38
2023-03-17T08:16:04.177Z,2.92
2023-03-17T08:17:06.345Z,2.47
2023-03-17T08:18:09.073Z,4.00
2023-03-17T08:19:11.880Z,3.08
2023-03-17T08:20:14.263Z,4.25
2023-03-17T08:21:17.552Z,1.98
2023-03-17T08:22:20.971Z,3.30
2023-03-17T08:23:23.535Z,2.53
2023-03-17T08:24:26.433Z,2.40
2023-03-17T08:25:29.633Z,2.80
2023-03-17T08:26:32.216Z,4.05
2023-03-17T08:27:34.722Z,2.55
2023-03-17T08:28:37.422Z,2.88
2023-03-17T08:29:39.602Z,3.25
2023-03-17T08:30:42.482Z,5.10
2023-03-17T08:31:46.555Z,4.03
2023-03-17T08:32:49.372Z,4.43
2023-03-17T08:33:52.566Z,4.55
2023-03-17T08:34:55.780Z,4.38
2023-03-17T08:35:57.649Z,3.90
2023-03-17T08:37:01.794Z,3.25
2023-03-17T08:38:04.947Z,7.53
2023-03-17T08:39:07.589Z,1.42
2023-03-17T08:40:11.348Z,2.45
2023-03-17T08:41:16.565Z,3.58
2023-03-17T08:42:18.532Z,2.20
2023-03-17T08:43:21.461Z,2.42
2023-03-17T08:44:23.312Z,3.20
2023-03-17T08:45:25.908Z,2.20
2023-03-17T08:46:29.429Z,2.05
2023-03-17T08:47:32.187Z,1.92
2023-03-17T08:48:35.672Z,4.38
2023-03-17T08:49:38.601Z,2.90
2023-03-17T08:50:41.088Z,5.15
2023-03-17T08:51:44.735Z,3.28
2023-03-17T08:52:48.698Z,3.92
2023-03-17T08:53:52.353Z,3.08
2023-03-17T08:54:55.328Z,4.93
2023-03-17T08:55:57.533Z,2.75
2023-03-17T08:57:01.814Z,3.53
2023-03-17T08:58:05.321Z,2.60
2023-03-17T08:59:08.488Z,2.22
2023-03-17T09:00:13.047Z,4.22
2023-03-17T09:01:17.451Z,3.10
2023-03-17T09:02:20.408Z,2.72
2023-03-17T09:03:22.897Z,3.58
2023-03-17T09:04:25.938Z,3.25
2023-03-17T09:05:28.978Z,3.60
2023-03-17T09:06:31.884Z,4.18
2023-03-17T09:07:35.646Z,2.80
2023-03-17T09:08:39.875Z,2.97
2023-03-17T09:09:43.955Z,2.10
2023-03-17T09:10:45.681Z,3.22
2023-03-17T09:11:48.177Z,2.97
2023-03-17T09:12:50.104Z,2.00
2023-03-17T09:13:52.794Z,2.80
2023-03-17T09:14:56.188Z,2.55
2023-03-17T09:15:59.776Z,2.80
2023-03-17T09:17:02.281Z,2.75
2023-03-17T09:18:06.240Z,2.55
2023-03-17T09:19:09.356Z,2.05
2023-03-17T09:20:11.549Z,1.95
2023-03-17T09:21:16.134Z,3.30
2023-03-17T09:22:19.725Z,2.35
2023-03-17T09:23:23.261Z,2.22
2023-03-17T09:24:26.085Z,2.00
2023-03-17T09:25:29.012Z,1.55
2023-03-17T09:26:31.987Z,2.92
2023-03-17T09:27:33.588Z,1.83
2023-03-17T09:28:36.128Z,2.58
2023-03-17T09:29:38.606Z,2.55
2023-03-17T09:30:42.580Z,3.20
2023-03-17T09:31:44.618Z,4.18
2023-03-17T09:32:47.185Z,2.50
2023-03-17T09:33:48.756Z,1.77
2023-03-17T09:34:51.753Z,1.73
2023-03-17T09:35:54.372Z,1.83
2023-03-17T09:36:57.303Z,2.80
2023-03-17T09:37:58.927Z,3.40
2023-03-17T09:39:01.803Z,5.38
2023-03-17T09:40:08.448Z,2.08
2023-03-17T09:41:30.665Z,3.03
2023-03-17T09:42:48.636Z,2.92
2023-03-17T09:43:56.925Z,2.42
2023-03-17T09:45:06.459Z,2.88
2023-03-17T09:46:25.683Z,2.42
2023-03-17T09:47:47.047Z,2.55
2023-03-17T09:48:59.005Z,3.40
2023-03-17T09:50:04.051Z,1.73
2023-03-17T09:51:09.016Z,1.13
2023-03-17T09:52:13.698Z,2.97
2023-03-17T09:53:20.978Z,3.03
2023-03-17T09:54:26.814Z,1.88
2023-03-17T09:55:32.901Z,2.28
2023-03-17T09:56:40.614Z,3.65
2023-03-17T09:57:43.671Z,3.78
2023-03-17T09:58:51.395Z,2.97
2023-03-17T10:00:06.398Z,2.30
2023-03-17T10:01:12.788Z,2.72
2023-03-17T10:02:30.123Z,3.35
2023-03-17T10:03:32.532Z,1.73
2023-03-17T10:04:37.115Z,2.53
2023-03-17T10:05:38.813Z,3.15
2023-03-17T10:06:44.724Z,2.45
2023-03-17T10:07:54.487Z,3.10
2023-03-17T10:09:02.007Z,1.60
2023-03-17T10:10:13.154Z,1.75
2023-03-17T10:11:25.684Z,7.32
2023-03-17T10:12:43.950Z,2.38
2023-03-17T10:13:54.987Z,5.57
2023-03-17T10:15:01.907Z,2.70
2023-03-17T10:16:07.833Z,1.98
2023-03-17T10:17:17.555Z,2.60
2023-03-17T10:18:25.711Z,5.38
2023-03-17T10:19:32.867Z,3.88
2023-03-17T10:20:39.239Z,2.72
2023-03-17T10:21:49.730Z,2.47
2023-03-17T10:22:55.969Z,4.60
2023-03-17T10:23:59.295Z,3.85
2023-03-17T10:25:05.785Z,2.45
2023-03-17T10:26:27.357Z,2.88
2023-03-17T10:27:37.549Z,5.53
2023-03-17T10:28:40.332Z,1.85
2023-03-17T10:29:42.924Z,1.70
2023-03-17T10:30:44.781Z,2.83
2023-03-17T10:31:47.604Z,3.85
2023-03-17T10:32:51.834Z,2.08
2023-03-17T10:33:55.556Z,1.80
2023-03-17T10:34:58.297Z,3.25
2023-03-17T10:36:09.164Z,2.15
2023-03-17T10:37:18.398Z,3.00
2023-03-17T10:38:23.019Z,3.03
2023-03-17T10:39:24.892Z,4.18
2023-03-17T10:40:31.085Z,3.63
2023-03-17T10:41:34.796Z,2.70
2023-03-17T10:42:49.050Z,3.00
2023-03-17T10:43:51.897Z,2.88
2023-03-17T10:44:56.731Z,1.77
2023-03-17T10:46:02.648Z,2.05
2023-03-17T10:47:04.466Z,5.40
2023-03-17T10:48:10.920Z,3.88
2023-03-17T10:49:18.777Z,3.47
2023-03-17T10:50:24.606Z,1.92
2023-03-17T10:51:31.620Z,2.80
2023-03-17T10:52:40.764Z,5.78
2023-03-17T10:53:43.807Z,3.35
2023-03-17T10:54:48.741Z,2.50
2023-03-17T10:55:53.382Z,2.15
2023-03-17T10:57:01.295Z,2.05
2023-03-17T10:58:08.684Z,2.15
2023-03-17T10:59:19.584Z,3.03
2023-03-17T11:00:23.580Z,2.10
2023-03-17T11:01:30.205Z,1.98
2023-03-17T11:02:44.266Z,1.77
2023-03-17T11:03:47.774Z,3.63
2023-03-17T11:04:50.532Z,4.00
2023-03-17T11:05:57.757Z,2.28
2023-03-17T11:07:05.258Z,3.33
2023-03-17T11:08:12.559Z,1.58
2023-03-17T11:09:18.792Z,1.40
2023-03-17T11:10:23.984Z,1.63
2023-03-17T11:11:27.891Z,2.50
2023-03-17T11:12:36.541Z,2.08
2023-03-17T11:13:41.154Z,2.72
2023-03-17T11:14:44.079Z,3.55
2023-03-17T11:15:51.708Z,1.95
2023-03-17T11:16:55.620Z,1.52
2023-03-17T11:18:00.399Z,5.07
2023-03-17T11:19:05.747Z,2.20
2023-03-17T11:20:20.951Z,3.22
2023-03-17T11:21:28.814Z,1.58
2023-03-17T11:22:37.891Z,1.40
2023-03-17T11:23:48.224Z,6.95
2023-03-17T11:25:01.665Z,1.98
2023-03-17T11:26:14.854Z,1.40
2023-03-17T11:27:32.311Z,3.03
2023-03-17T11:28:41.127Z,1.27
2023-03-17T11:29:57.420Z,3.13
2023-03-17T11:31:09.436Z,1.10
2023-03-17T11:32:26.299Z,4.00
2023-03-17T11:33:49.740Z,2.28
2023-03-17T11:35:08.836Z,1.05
2023-03-17T11:36:27.220Z,1.92
2023-03-17T11:37:41.637Z,1.65
2023-03-17T11:38:58.203Z,2.15
2023-03-17T11:40:07.741Z,1.48
2023-03-17T11:41:29.338Z,3.22
2023-03-17T11:42:44.194Z,1.23
2023-03-17T11:44:05.587Z,2.55
2023-03-17T11:45:21.006Z,2.17
2023-03-17T11:46:28.363Z,4.68
2023-03-17T11:47:42.782Z,2.10
2023-03-17T11:48:55.148Z,1.85
2023-03-17T11:50:08.602Z,1.73
2023-03-17T11:51:21.088Z,4.65
2023-03-17T11:52:30.011Z,1.50
2023-03-17T11:53:51.435Z,2.40
2023-03-17T11:55:04.385Z,2.45
2023-03-17T11:56:12.573Z,2.08
2023-03-17T11:57:22.049Z,5.40
2023-03-17T11:58:30.332Z,3.15
2023-03-17T11:59:40.591Z,1.98
2023-03-17T12:00:50.825Z,1.55
2023-03-17T12:02:00.390Z,2.08
2023-03-17T12:03:14.509Z,2.95
2023-03-17T12:04:23.435Z,1.90
2023-03-17T12:05:26.900Z,1.52
2023-03-17T12:06:32.699Z,1.73
2023-03-17T12:07:39.128Z,4.75
2023-03-17T12:08:45.514Z,2.42
2023-03-17T12:09:57.829Z,4.75
2023-03-17T12:11:02.242Z,1.92
2023-03-17T12:12:05.474Z,3.25
2023-03-17T12:13:14.619Z,4.82
2023-03-17T12:14:26.926Z,3.72
2023-03-17T12:15:36.058Z,1.58
2023-03-17T12:16:45.058Z,1.55
2023-03-17T12:17:55.284Z,2.63
2023-03-17T12:19:06.597Z,1.63
2023-03-17T12:20:18.605Z,3.00
2023-03-17T12:21:27.435Z,2.53
2023-03-17T12:22:35.648Z,1.58
2023-03-17T12:23:45.223Z,1.20
2023-03-17T12:25:04.691Z,1.48
2023-03-17T12:26:12.344Z,2.47
2023-03-17T12:27:18.058Z,1.77
2023-03-17T12:28:25.817Z,1.85
2023-03-17T12:29:43.063Z,1.42
2023-03-17T12:30:50.887Z,3.55
2023-03-17T12:32:04.157Z,1.90
2023-03-17T12:33:16.829Z,3.25
2023-03-17T12:34:24.097Z,3.08
2023-03-17T12:35:29.624Z,2.97
2023-03-17T12:36:32.746Z,1.88
2023-03-17T12:37:34.360Z,2.15
2023-03-17T12:38:41.664Z,3.00
2023-03-17T12:39:50.266Z,1.90
2023-03-17T12:41:33.656Z,3.97
2023-03-17T12:42:47.985Z,2.05
2023-03-17T12:44:01.343Z,3.78
2023-03-17T12:45:29.687Z,13.45
2023-03-17T12:46:49.031Z,1.85
2023-03-17T12:48:08.295Z,3.00
2023-03-17T12:49:34.856Z,3.15
2023-03-17T12:51:09.003Z,3.90
2023-03-17T12:52:25.922Z,1.80
2023-03-17T12:53:31.205Z,1.40
2023-03-17T12:54:35.833Z,1.13
2023-03-17T12:55:46.938Z,1.38
2023-03-17T12:56:49.633Z,3.00
2023-03-17T12:58:01.958Z,6.05
2023-03-17T12:59:06.696Z,4.45
2023-03-17T13:00:20.422Z,3.60
2023-03-17T13:01:31.944Z,3.08
2023-03-17T13:02:37.397Z,3.60
2023-03-17T13:03:56.367Z,2.42
2023-03-17T13:05:01.750Z,3.67
2023-03-17T13:06:07.550Z,6.55
2023-03-17T13:07:12.871Z,2.83
2023-03-17T13:08:22.102Z,7.75
2023-03-17T13:09:43.058Z,3.33
2023-03-17T13:11:50.013Z,4.32
2023-03-17T13:13:08.887Z,8.45
2023-03-17T13:14:26.103Z,3.58
2023-03-17T13:15:44.977Z,3.10
2023-03-17T13:16:47.838Z,3.15
2023-03-17T13:17:50.002Z,5.53
2023-03-17T13:19:09.323Z,6.80
2023-03-17T13:20:17.328Z,4.70
2023-03-17T13:21:25.124Z,3.92
2023-03-17T13:22:36.394Z,6.85
2023-03-17T13:23:42.388Z,6.80
2023-03-17T13:24:48.341Z,6.57
2023-03-17T13:25:53.652Z,4.85
2023-03-17T13:27:02.023Z,5.43
2023-03-17T13:28:23.877Z,2.65
2023-03-17T13:29:42.388Z,3.63
2023-03-17T13:30:57.138Z,4.43
2023-03-17T13:32:30.793Z,3.58
2023-03-17T13:33:33.481Z,6.10
2023-03-17T13:34:45.550Z,3.33
2023-03-17T13:35:59.139Z,3.05
2023-03-17T13:37:05.572Z,4.85
2023-03-17T13:38:27.554Z,3.25
2023-03-17T13:39:56.075Z,3.90
2023-03-17T13:41:27.655Z,2.53
2023-03-17T13:42:52.064Z,2.85
2023-03-17T13:44:18.819Z,3.45
2023-03-17T13:45:32.482Z,5.75
2023-03-17T13:46:44.062Z,4.22
2023-03-17T13:47:47.079Z,6.55
2023-03-17T13:48:50.424Z,6.22
2023-03-17T13:50:00.398Z,4.47
2023-03-17T13:51:14.469Z,3.53
2023-03-17T13:52:24.871Z,4.05
2023-03-17T13:53:30.931Z,4.25
2023-03-17T13:54:36.061Z,3.85
2023-03-17T13:55:41.308Z,4.82
2023-03-17T13:56:48.919Z,3.00
2023-03-17T13:57:57.298Z,4.20
2023-03-17T13:59:14.848Z,3.38
2023-03-17T14:00:24.461Z,3.03
2023-03-17T14:01:28.351Z,4.75
2023-03-17T14:02:37.114Z,3.90
2023-03-17T14:03:42.632Z,3.13
2023-03-17T14:04:54.688Z,3.88
2023-03-17T14:06:01.317Z,2.95
2023-03-17T14:07:10.064Z,6.60
2023-03-17T14:08:20.834Z,4.47
2023-03-17T14:10:34.520Z,4.93
2023-03-17T14:11:39.689Z,4.47
2023-03-17T14:12:51.128Z,5.07
2023-03-17T14:14:09.900Z,2.97
2023-03-17T14:15:21.543Z,2.95
2023-03-17T14:17:32.282Z,3.17
2023-03-17T14:18:36.108Z,4.70
2023-03-17T14:19:41.583Z,2.53
2023-03-17T14:20:54.063Z,4.00
2023-03-17T14:22:04.219Z,3.40
2023-03-17T14:23:07.371Z,3.13
2023-03-17T14:24:19.451Z,4.60
2023-03-17T14:25:24.793Z,5.75
2023-03-17T14:26:29.747Z,3.58
2023-03-17T14:27:35.249Z,7.00
2023-03-17T14:28:38.730Z,3.38
2023-03-17T14:29:41.008Z,3.38
2023-03-17T14:30:52.516Z,3.08